Time;durP1;ratioP1;P1;durP2;ratioP2;P2;SDS_P1;SDS_P2;PMS_P1;PMS_P2;Temp;Humidity;BMP_temperature;BMP_pressure;BME280_temperature;BME280_humidity;BME280_pressure;Samples;Min_cycle;Max_cycle;Signal;HPM_P1;HPM_P2
2021/07/23 00:01:25;;;;;;;;;;;;;;;29.60;40.89;100732.03;5100419;28;734;-34
2021/07/23 00:03:50;;;;;;;;;;;;;;;29.57;40.93;100728.69;5100238;28;772;-34
2021/07/23 00:06:15;;;;;;;;;;;;;;;29.65;40.88;100726.84;5100242;28;763;-33
2021/07/23 00:08:40;;;;;;;;;;;;;;;29.61;40.83;100733.72;5099922;28;767;-35
2021/07/23 00:11:06;;;;;;;;;;;;;;;29.67;40.69;100730.19;5099872;28;1002;-34
2021/07/23 00:13:31;;;;;;;;;;;;;;;29.77;40.42;100729.81;5100184;28;756;-32
2021/07/23 00:15:56;;;;;;;;;;;;;;;29.61;40.86;100731.84;5100018;28;1898;-34
2021/07/23 00:18:22;;;;;;;;;;;;;;;29.72;40.71;100729.59;5099702;28;743;-34
2021/07/23 00:20:47;;;;;;;;;;;;;;;29.60;40.90;100732.88;5099784;28;820;-32
2021/07/23 00:23:12;;;;;;;;;;;;;;;29.69;40.82;100728.97;5099720;28;835;-36
2021/07/23 00:25:38;;;;;;;;;;;;;;;29.59;41.12;100733.94;5099679;28;823;-33
2021/07/23 00:28:03;;;;;;;;;;;;;;;29.52;41.31;100730.31;5099450;28;1112;-37
2021/07/23 00:30:28;;;;;;;;;;;;;;;29.72;41.12;100727.72;5099486;28;787;-31
2021/07/23 00:32:54;;;;;;;;;;;;;;;29.55;41.22;100724.47;5099626;28;783;-34
2021/07/23 00:35:20;;;;;;;;;;;;;;;29.66;41.01;100726.66;5099630;28;1897;-33
2021/07/23 00:37:45;;;;;;;;;;;;;;;29.67;41.05;100728.34;5097974;28;820;-34
2021/07/23 00:40:11;;;;;;;;;;;;;;;29.67;40.88;100724.78;5099797;28;787;-34
2021/07/23 00:42:38;;;;;;;;;;;;;;;29.67;41.10;100727.50;5099525;28;942;-33
2021/07/23 00:45:04;;;;;;;;;;;;;;;29.60;41.43;100724.75;5099159;28;743;-36
2021/07/23 00:47:29;;;;;;;;;;;;;;;29.53;41.46;100732.00;5099509;28;1506;-32
2021/07/23 00:49:54;;;;;;;;;;;;;;;29.60;41.42;100726.59;5081224;28;754;-33
2021/07/23 00:52:19;;;;;;;;;;;;;;;29.66;41.11;100732.06;5084971;28;1146;-34
2021/07/23 00:54:45;;;;;;;;;;;;;;;29.64;41.35;100720.63;5061439;28;1918;-34
2021/07/23 00:57:10;;;;;;;;;;;;;;;29.64;41.33;100726.03;5089952;28;947;-35
2021/07/23 00:59:35;;;;;;;;;;;;;;;29.61;41.47;100728.31;5099177;28;780;-33
2021/07/23 01:02:01;;;;;;;;;;;;;;;29.56;41.68;100732.41;5080884;28;884;-37
2021/07/23 01:04:26;;;;;;;;;;;;;;;29.61;41.46;100722.88;5099047;28;816;-35
2021/07/23 01:06:52;;;;;;;;;;;;;;;29.55;41.72;100730.75;5099133;28;767;-34
2021/07/23 01:09:17;;;;;;;;;;;;;;;29.58;41.77;100724.91;5080643;28;824;-33
2021/07/23 01:11:42;;;;;;;;;;;;;;;29.56;41.67;100726.97;5099376;28;947;-30
2021/07/23 01:14:08;;;;;;;;;;;;;;;29.55;41.51;100733.44;5098825;28;2039;-32
2021/07/23 01:16:33;;;;;;;;;;;;;;;29.55;41.46;100732.59;5099044;28;775;-36
2021/07/23 01:18:58;;;;;;;;;;;;;;;29.58;41.52;100732.19;5098396;28;1414;-31
2021/07/23 01:21:23;;;;;;;;;;;;;;;29.55;41.46;100735.31;5098752;28;812;-32
2021/07/23 01:23:49;;;;;;;;;;;;;;;29.60;41.23;100729.31;5098570;28;752;-35
2021/07/23 01:26:14;;;;;;;;;;;;;;;29.56;41.45;100732.41;5098433;28;950;-35
2021/07/23 01:28:40;;;;;;;;;;;;;;;29.52;41.69;100733.00;5098503;28;821;-34
2021/07/23 01:31:05;;;;;;;;;;;;;;;29.56;41.57;100737.00;5098551;28;803;-32
2021/07/23 01:33:31;;;;;;;;;;;;;;;29.52;41.42;100728.44;5098310;28;797;-34
2021/07/23 01:35:56;;;;;;;;;;;;;;;29.64;41.22;100730.59;5098559;28;1963;-34
2021/07/23 01:38:26;;;;;;;;;;;;;;;29.63;41.40;100728.94;5098665;28;767;-34
2021/07/23 01:40:52;;;;;;;;;;;;;;;29.56;41.61;100737.81;5098278;28;970;-35
2021/07/23 01:43:17;;;;;;;;;;;;;;;29.59;41.53;100731.22;5098118;28;978;-33
2021/07/23 01:45:43;;;;;;;;;;;;;;;29.52;41.76;100733.00;5080041;28;812;-37
2021/07/23 01:48:08;;;;;;;;;;;;;;;29.57;41.62;100734.09;5097350;28;1304;-33
2021/07/23 01:50:33;;;;;;;;;;;;;;;29.55;41.67;100733.44;5098492;28;759;-37
2021/07/23 01:52:59;;;;;;;;;;;;;;;29.56;41.67;100734.31;5078593;28;1245;-32
2021/07/23 01:55:24;;;;;;;;;;;;;;;29.57;41.46;100736.81;5077776;28;1965;-35
2021/07/23 01:57:49;;;;;;;;;;;;;;;29.60;41.68;100740.16;5094640;28;943;-33
2021/07/23 02:00:15;;;;;;;;;;;;;;;29.56;41.40;100737.81;5098024;28;863;-35
2021/07/23 02:02:40;;;;;;;;;;;;;;;29.59;41.68;100742.06;5097638;28;894;-35
2021/07/23 02:05:06;;;;;;;;;;;;;;;29.57;41.68;100736.81;5098024;28;787;-35
2021/07/23 02:07:31;;;;;;;;;;;;;;;29.62;41.41;100732.69;5079936;28;729;-35
2021/07/23 02:09:56;;;;;;;;;;;;;;;29.55;41.39;100740.75;5097650;28;737;-33
2021/07/23 02:12:22;;;;;;;;;;;;;;;29.53;41.61;100740.94;5084883;28;966;-29
2021/07/23 02:14:47;;;;;;;;;;;;;;;29.56;41.29;100743.25;5077303;28;1917;-35
2021/07/23 02:17:13;;;;;;;;;;;;;;;29.59;41.35;100742.06;5077364;28;852;-33
2021/07/23 02:19:38;;;;;;;;;;;;;;;29.56;41.58;100745.97;5077579;28;792;-33
2021/07/23 02:22:04;;;;;;;;;;;;;;;29.58;41.27;100741.19;5076892;28;983;-36
2021/07/23 02:24:30;;;;;;;;;;;;;;;29.57;41.51;100742.22;5077517;28;843;-40
2021/07/23 02:26:55;;;;;;;;;;;;;;;29.59;41.57;100739.34;5077283;28;943;-34
2021/07/23 02:29:20;;;;;;;;;;;;;;;29.52;41.77;100747.41;5077277;28;819;-34
2021/07/23 02:31:45;;;;;;;;;;;;;;;29.56;41.67;100735.13;5076738;28;848;-37
2021/07/23 02:34:11;;;;;;;;;;;;;;;29.56;41.69;100737.00;5077222;28;1910;-34
2021/07/23 02:36:36;;;;;;;;;;;;;;;29.53;41.81;100734.69;5076706;28;821;-35
2021/07/23 02:39:02;;;;;;;;;;;;;;;29.48;41.90;100737.16;5076897;28;715;-33
2021/07/23 02:41:27;;;;;;;;;;;;;;;29.52;41.72;100731.16;5081957;28;927;-35
2021/07/23 02:43:52;;;;;;;;;;;;;;;29.58;41.65;100737.63;5097182;28;843;-33
2021/07/23 02:46:17;;;;;;;;;;;;;;;29.50;41.90;100732.38;5097538;28;771;-31
2021/07/23 02:48:43;;;;;;;;;;;;;;;29.61;41.53;100741.84;5097209;28;1308;-37
2021/07/23 02:51:09;;;;;;;;;;;;;;;29.55;41.78;100730.75;5092581;28;1120;-33
2021/07/23 02:53:34;;;;;;;;;;;;;;;29.03;36.35;100735.63;5076768;28;753;-34
2021/07/23 02:55:59;;;;;;;;;;;;;;;28.62;35.35;100734.41;5078291;28;1914;-34
2021/07/23 02:58:25;;;;;;;;;;;;;;;29.04;37.91;100740.84;5097048;28;856;-36
2021/07/23 03:00:50;;;;;;;;;;;;;;;29.17;39.62;100737.41;5096160;28;814;-32
2021/07/23 03:03:15;;;;;;;;;;;;;;;29.34;39.92;100739.78;5097019;28;807;-34
2021/07/23 03:05:41;;;;;;;;;;;;;;;29.31;40.26;100742.91;5096875;28;814;-31
2021/07/23 03:08:08;;;;;;;;;;;;;;;29.37;40.13;100733.97;5096986;28;867;-33
2021/07/23 03:10:34;;;;;;;;;;;;;;;29.33;40.16;100738.09;5097048;28;768;-37
2021/07/23 03:12:59;;;;;;;;;;;;;;;29.39;40.07;100742.75;5096629;28;927;-30
2021/07/23 03:15:24;;;;;;;;;;;;;;;29.03;37.53;100741.84;5096748;28;1955;-38
2021/07/23 03:17:50;;;;;;;;;;;;;;;28.43;35.51;100744.81;5097006;28;803;-38
2021/07/23 03:20:15;;;;;;;;;;;;;;;28.26;35.20;100742.31;5077727;28;805;-38
2021/07/23 03:22:40;;;;;;;;;;;;;;;27.05;35.40;100736.09;5096414;28;776;-32
2021/07/23 03:25:06;;;;;;;;;;;;;;;27.04;34.43;100742.53;5096903;28;754;-38
2021/07/23 03:27:31;;;;;;;;;;;;;;;26.66;34.85;100730.66;5096620;28;1387;-39
2021/07/23 03:29:56;;;;;;;;;;;;;;;26.41;35.64;100733.53;5096901;28;747;-31
2021/07/23 03:32:22;;;;;;;;;;;;;;;26.48;35.24;100736.34;5096351;28;767;-31
2021/07/23 03:34:47;;;;;;;;;;;;;;;26.12;35.34;100740.41;5096479;28;1905;-31
2021/07/23 03:37:15;;;;;;;;;;;;;;;26.20;35.23;100743.06;5097147;28;815;-27
2021/07/23 03:39:40;;;;;;;;;;;;;;;26.93;35.14;100741.91;5096437;28;839;-32
2021/07/23 03:42:05;;;;;;;;;;;;;;;27.38;33.80;100749.28;5096443;28;943;-40
2021/07/23 03:44:31;;;;;;;;;;;;;;;27.33;33.32;100744.44;5096147;28;1127;-31
2021/07/23 03:46:56;;;;;;;;;;;;;;;27.59;32.80;100750.44;5075833;28;1183;-36
2021/07/23 03:49:21;;;;;;;;;;;;;;;27.73;32.53;100748.75;5091457;28;1109;-39
2021/07/23 03:51:47;;;;;;;;;;;;;;;27.68;32.59;100746.63;5106366;28;1218;-35
2021/07/23 03:54:12;;;;;;;;;;;;;;;27.89;31.84;100752.31;5116796;28;1913;-28
2021/07/23 03:56:37;;;;;;;;;;;;;;;26.23;34.91;100748.09;5116516;28;942;-27
2021/07/23 03:59:02;;;;;;;;;;;;;;;26.31;35.47;100752.59;5115133;28;1055;-32
2021/07/23 04:01:28;;;;;;;;;;;;;;;27.20;34.01;100752.34;5116823;28;783;-32
2021/07/23 04:03:53;;;;;;;;;;;;;;;27.60;33.68;100746.69;5116427;28;791;-35
2021/07/23 04:06:18;;;;;;;;;;;;;;;27.75;33.43;100749.41;5116996;28;832;-39
2021/07/23 04:08:44;;;;;;;;;;;;;;;27.93;33.00;100751.72;5116851;28;776;-29
2021/07/23 04:11:25;;;;;;;;;;;;;;;28.04;33.60;100754.97;5117428;28;918;-42
2021/07/23 04:13:51;;;;;;;;;;;;;;;28.25;33.60;100746.06;5120695;28;843;-44
2021/07/23 04:16:16;;;;;;;;;;;;;;;28.38;33.52;100747.28;5120350;28;1954;-29
2021/07/23 04:18:41;;;;;;;;;;;;;;;28.54;33.64;100747.03;5120374;28;807;-32
2021/07/23 04:21:06;;;;;;;;;;;;;;;28.60;33.79;100746.25;5120425;28;755;-42
2021/07/23 04:23:32;;;;;;;;;;;;;;;28.69;33.75;100748.84;5119769;28;773;-33
2021/07/23 04:25:57;;;;;;;;;;;;;;;28.29;34.80;100739.25;5101903;28;938;-30
2021/07/23 04:28:22;;;;;;;;;;;;;;;27.06;36.51;100741.31;5120347;28;831;-35
2021/07/23 04:30:48;;;;;;;;;;;;;;;27.81;34.37;100732.44;5120203;28;784;-30
2021/07/23 04:33:13;;;;;;;;;;;;;;;27.97;33.61;100733.28;5119678;28;927;-32
2021/07/23 04:35:38;;;;;;;;;;;;;;;28.17;33.44;100749.75;5119674;28;1950;-28
2021/07/23 04:38:04;;;;;;;;;;;;;;;28.15;32.83;100740.97;5120145;28;808;-29
2021/07/23 04:40:29;;;;;;;;;;;;;;;28.26;32.21;100738.81;5119984;28;799;-43
2021/07/23 04:42:54;;;;;;;;;;;;;;;28.34;32.32;100746.84;5119307;28;1030;-35
2021/07/23 04:45:19;;;;;;;;;;;;;;;28.28;31.80;100750.28;5120183;28;843;-43
2021/07/23 04:47:45;;;;;;;;;;;;;;;28.27;31.74;100741.31;5117371;28;1308;-30
2021/07/23 04:50:10;;;;;;;;;;;;;;;28.20;31.44;100752.06;5099306;28;843;-43
2021/07/23 04:52:35;;;;;;;;;;;;;;;28.25;31.76;100748.78;5098933;28;1147;-43
2021/07/23 04:55:07;;;;;;;;;;;;;;;28.18;31.55;100748.69;5099175;28;1985;-31
2021/07/23 04:57:33;;;;;;;;;;;;;;;28.33;31.26;100748.69;5098987;28;939;-40
2021/07/23 04:59:59;;;;;;;;;;;;;;;28.31;31.20;100748.00;5099061;28;800;-31
2021/07/23 05:02:24;;;;;;;;;;;;;;;28.15;31.52;100750.94;5099145;28;733;-33
2021/07/23 05:04:49;;;;;;;;;;;;;;;28.18;31.27;100754.09;5099334;28;863;-32
2021/07/23 05:07:14;;;;;;;;;;;;;;;28.38;31.17;100761.63;5099264;28;819;-32
2021/07/23 05:09:40;;;;;;;;;;;;;;;28.33;31.11;100754.09;5098779;28;851;-27
2021/07/23 05:12:05;;;;;;;;;;;;;;;28.40;31.25;100756.03;5098552;28;942;-30
2021/07/23 05:14:31;;;;;;;;;;;;;;;28.34;31.26;100763.06;5080268;28;1951;-33
2021/07/23 05:16:57;;;;;;;;;;;;;;;28.57;31.78;100759.34;5098930;28;786;-32
2021/07/23 05:19:22;;;;;;;;;;;;;;;28.92;32.99;100764.03;5099210;28;743;-31
2021/07/23 05:21:48;;;;;;;;;;;;;;;29.01;33.71;100762.88;5098630;28;844;-42
2021/07/23 05:24:13;;;;;;;;;;;;;;;29.12;33.89;100755.25;5080070;28;791;-40
2021/07/23 05:26:38;;;;;;;;;;;;;;;29.04;34.59;100761.66;5098301;28;994;-32
2021/07/23 05:29:04;;;;;;;;;;;;;;;29.05;34.71;100753.34;5098397;28;780;-29
2021/07/23 05:31:29;;;;;;;;;;;;;;;28.98;34.97;100765.97;5098767;28;771;-29
2021/07/23 05:33:57;;;;;;;;;;;;;;;29.02;35.27;100761.00;5098441;28;767;-33
2021/07/23 05:36:22;;;;;;;;;;;;;;;29.17;34.92;100767.19;5098556;28;1898;-38
2021/07/23 05:38:47;;;;;;;;;;;;;;;29.07;35.43;100763.97;5098513;28;867;-36
2021/07/23 05:41:12;;;;;;;;;;;;;;;29.20;35.50;100760.53;5097769;28;970;-37
2021/07/23 05:43:38;;;;;;;;;;;;;;;29.34;35.53;100764.19;5098196;28;838;-32
2021/07/23 05:46:06;;;;;;;;;;;;;;;29.29;35.59;100770.19;5098285;28;780;-33
2021/07/23 05:48:34;;;;;;;;;;;;;;;29.31;35.55;100765.41;5098245;28;1158;-37
2021/07/23 05:51:00;;;;;;;;;;;;;;;29.25;36.27;100774.31;5095159;28;1115;-29
2021/07/23 05:53:26;;;;;;;;;;;;;;;29.27;36.37;100766.84;5077487;28;836;-27
2021/07/23 05:55:51;;;;;;;;;;;;;;;29.29;36.47;100764.78;5077950;28;1960;-27
2021/07/23 05:58:16;;;;;;;;;;;;;;;29.25;36.74;100762.63;5098002;28;815;-33
2021/07/23 06:00:41;;;;;;;;;;;;;;;29.26;36.99;100764.34;5098277;28;804;-30
2021/07/23 06:03:07;;;;;;;;;;;;;;;29.31;36.73;100770.81;5097582;28;836;-32
2021/07/23 06:05:32;;;;;;;;;;;;;;;29.42;36.94;100764.03;5097325;28;1434;-32
2021/07/23 06:07:57;;;;;;;;;;;;;;;29.31;37.24;100759.16;5097773;28;823;-30
2021/07/23 06:10:23;;;;;;;;;;;;;;;29.31;36.79;100757.28;5097912;28;772;-35
2021/07/23 06:12:48;;;;;;;;;;;;;;;29.33;36.68;100748.94;5079411;28;1394;-34
2021/07/23 06:15:13;;;;;;;;;;;;;;;29.37;36.42;100746.69;5097339;28;1961;-31
2021/07/23 06:17:38;;;;;;;;;;;;;;;29.35;37.04;100738.75;5097794;28;871;-29
2021/07/23 06:20:04;;;;;;;;;;;;;;;29.48;36.82;100740.69;5097523;28;736;-31
2021/07/23 06:22:29;;;;;;;;;;;;;;;29.49;37.19;100745.09;5097699;28;767;-31
2021/07/23 06:24:56;;;;;;;;;;;;;;;29.53;37.02;100745.53;5097479;28;821;-31
2021/07/23 06:27:21;;;;;;;;;;;;;;;29.57;37.10;100739.50;5097192;28;951;-33
2021/07/23 06:29:48;;;;;;;;;;;;;;;29.61;36.94;100744.56;5097461;28;881;-29
2021/07/23 06:32:13;;;;;;;;;;;;;;;29.55;36.91;100736.16;5096943;28;800;-36
2021/07/23 06:34:39;;;;;;;;;;;;;;;29.61;37.14;100734.56;5096658;28;1957;-32
2021/07/23 06:37:04;;;;;;;;;;;;;;;29.54;38.06;100736.38;5097368;28;819;-30
2021/07/23 06:39:30;;;;;;;;;;;;;;;29.64;37.69;100728.75;5097473;28;850;-35
2021/07/23 06:41:55;;;;;;;;;;;;;;;29.68;37.90;100738.13;5096869;28;946;-26
2021/07/23 06:44:22;;;;;;;;;;;;;;;29.71;38.33;100731.50;5097529;28;804;-36
2021/07/23 06:46:47;;;;;;;;;;;;;;;29.61;38.20;100722.88;5097279;28;797;-31
2021/07/23 06:49:12;;;;;;;;;;;;;;;29.61;38.92;100733.72;5096824;28;1067;-35
2021/07/23 06:51:38;;;;;;;;;;;;;;;29.75;38.37;100726.47;5097216;28;1139;-36
2021/07/23 06:54:03;;;;;;;;;;;;;;;29.75;38.08;100730.03;5097032;28;796;-26
2021/07/23 06:56:28;;;;;;;;;;;;;;;29.80;38.37;100727.56;5096654;28;1960;-38
2021/07/23 06:58:54;;;;;;;;;;;;;;;29.90;38.25;100727.19;5096893;28;786;-26
2021/07/23 07:01:19;;;;;;;;;;;;;;;29.93;37.96;100728.63;5097320;28;875;-25
2021/07/23 07:03:44;;;;;;;;;;;;;;;29.91;37.76;100730.72;5096515;28;807;-24
2021/07/23 07:06:11;;;;;;;;;;;;;;;30.02;37.66;100723.88;5097237;28;787;-35
2021/07/23 07:08:36;;;;;;;;;;;;;;;30.00;38.13;100725.94;5097178;28;804;-33
2021/07/23 07:11:01;;;;;;;;;;;;;;;29.98;38.59;100719.91;5096261;28;982;-26
2021/07/23 07:13:27;;;;;;;;;;;;;;;29.97;38.03;100723.66;5079205;28;799;-36
2021/07/23 07:15:52;;;;;;;;;;;;;;;30.08;37.56;100725.75;5096642;28;1939;-36
2021/07/23 07:18:17;;;;;;;;;;;;;;;30.08;38.36;100725.75;5096587;28;798;-33
2021/07/23 07:20:42;;;;;;;;;;;;;;;29.98;38.45;100726.16;5096850;28;834;-24
2021/07/23 07:23:08;;;;;;;;;;;;;;;30.03;38.32;100723.66;5096005;28;752;-29
2021/07/23 07:25:33;;;;;;;;;;;;;;;30.09;37.88;100729.31;5096720;28;799;-34
2021/07/23 07:28:00;;;;;;;;;;;;;;;30.09;37.77;100732.88;5096786;28;943;-35
2021/07/23 07:30:25;;;;;;;;;;;;;;;30.14;38.01;100726.84;5096628;28;775;-28
2021/07/23 07:32:50;;;;;;;;;;;;;;;30.11;37.97;100724.53;5096672;28;780;-39
2021/07/23 07:35:16;;;;;;;;;;;;;;;30.03;38.06;100723.66;5096453;28;1893;-29
2021/07/23 07:37:41;;;;;;;;;;;;;;;30.04;38.15;100722.66;5096292;28;842;-36
2021/07/23 07:40:07;;;;;;;;;;;;;;;30.00;37.75;100726.78;5096650;28;787;-33
2021/07/23 07:42:32;;;;;;;;;;;;;;;29.96;38.61;100722.84;5096490;28;938;-26
2021/07/23 07:45:00;;;;;;;;;;;;;;;30.01;38.30;100719.50;5096425;28;783;-24
2021/07/23 07:47:26;;;;;;;;;;;;;;;29.98;38.47;100718.00;5099906;28;850;-29
2021/07/23 07:49:51;;;;;;;;;;;;;;;30.06;37.83;100714.31;5099973;28;1107;-30
2021/07/23 07:52:19;;;;;;;;;;;;;;;30.17;37.59;100721.00;5100579;28;807;-35
2021/07/23 07:54:47;;;;;;;;;;;;;;;30.08;37.55;100725.75;5100740;28;1961;-30
2021/07/23 07:57:13;;;;;;;;;;;;;;;29.98;38.91;100719.91;5099835;28;994;-38
2021/07/23 07:59:38;;;;;;;;;;;;;;;29.95;38.32;100726.56;5100432;28;792;-38
2021/07/23 08:02:10;;;;;;;;;;;;;;;30.05;37.81;100727.03;5099774;28;788;-26
2021/07/23 08:04:36;;;;;;;;;;;;;;;30.00;37.72;100726.78;5100170;28;748;-27
2021/07/23 08:07:01;;;;;;;;;;;;;;;30.06;36.30;100725.16;5100070;28;850;-31
2021/07/23 08:09:27;;;;;;;;;;;;;;;30.16;36.56;100731.00;5100232;28;736;-31
2021/07/23 08:11:53;;;;;;;;;;;;;;;30.06;35.81;100731.41;5099710;28;1010;-31
2021/07/23 08:14:18;;;;;;;;;;;;;;;30.12;35.54;100737.91;5099771;28;1953;-29
2021/07/23 08:16:43;;;;;;;;;;;;;;;30.16;34.69;100727.47;5100111;28;890;-26
2021/07/23 08:19:09;;;;;;;;;;;;;;;30.16;34.51;100730.19;5082044;28;731;-34
2021/07/23 08:21:35;;;;;;;;;;;;;;;30.14;35.08;100727.69;5099997;28;829;-35
2021/07/23 08:24:00;;;;;;;;;;;;;;;30.11;34.12;100738.09;5100135;28;746;-28
2021/07/23 08:26:26;;;;;;;;;;;;;;;30.17;35.61;100729.13;5099410;28;947;-31
2021/07/23 08:28:52;;;;;;;;;;;;;;;30.10;34.60;100726.41;5099747;28;795;-35
2021/07/23 08:31:17;;;;;;;;;;;;;;;30.18;32.39;100738.94;5099749;28;767;-36
2021/07/23 08:33:44;;;;;;;;;;;;;;;30.13;34.43;100736.03;5099664;28;760;-36
2021/07/23 08:36:10;;;;;;;;;;;;;;;30.20;35.19;100728.75;5100134;28;1906;-30
2021/07/23 08:38:37;;;;;;;;;;;;;;;30.24;33.90;100734.63;5099189;28;823;-31
2021/07/23 08:41:05;;;;;;;;;;;;;;;30.14;34.58;100733.09;5098968;28;922;-27
2021/07/23 08:43:32;;;;;;;;;;;;;;;30.18;34.78;100726.22;5099087;28;855;-31
2021/07/23 08:46:00;;;;;;;;;;;;;;;30.20;35.32;100731.47;5099345;28;863;-25
2021/07/23 08:48:29;;;;;;;;;;;;;;;30.35;34.01;100725.88;5099615;28;1059;-32
2021/07/23 08:50:57;;;;;;;;;;;;;;;30.31;33.95;100732.75;5098832;28;880;-28
2021/07/23 08:53:25;;;;;;;;;;;;;;;30.32;32.29;100726.28;5098292;28;833;-26
2021/07/23 08:55:53;;;;;;;;;;;;;;;30.38;33.35;100732.78;5098574;28;1969;-29
2021/07/23 08:58:22;;;;;;;;;;;;;;;30.36;33.24;100724.84;5097898;28;771;-34
2021/07/23 09:00:54;;;;;;;;;;;;;;;30.38;32.94;100716.50;5099143;28;875;-30
2021/07/23 09:03:27;;;;;;;;;;;;;;;30.35;34.03;100720.44;5081627;28;1274;-26
2021/07/23 09:05:58;;;;;;;;;;;;;;;30.38;34.54;100714.59;5080894;28;832;-33
2021/07/23 09:08:27;;;;;;;;;;;;;;;30.33;33.64;100717.09;5098288;28;839;-28
2021/07/23 09:11:11;;;;;;;;;;;;;;;30.34;32.55;100713.34;5098465;28;922;-28
2021/07/23 09:13:42;;;;;;;;;;;;;;;30.37;31.92;100723.78;5098462;28;827;-31
2021/07/23 09:16:27;;;;;;;;;;;;;;;30.38;33.59;100719.22;5098296;28;1958;-27
2021/07/23 09:19:08;;;;;;;;;;;;;;;30.36;35.04;100714.00;5098812;28;792;-29
2021/07/23 09:21:50;;;;;;;;;;;;;;;30.36;35.09;100710.44;5098864;28;804;-29
2021/07/23 09:24:32;;;;;;;;;;;;;;;30.38;35.15;100705.63;5098909;28;792;-36
2021/07/23 09:27:24;;;;;;;;;;;;;;;30.34;35.78;100707.06;5050136;28;1062;-30
2021/07/23 09:30:13;;;;;;;;;;;;;;;30.29;36.32;100705.84;5050921;28;902;-28
2021/07/23 09:33:01;;;;;;;;;;;;;;;30.32;36.52;100704.56;5098413;28;788;-34
2021/07/23 09:36:01;;;;;;;;;;;;;;;30.30;36.88;100712.06;5017648;28;1959;-30
2021/07/23 09:38:58;;;;;;;;;;;;;;;30.34;36.70;100699.78;5002217;28;1008;-34
2021/07/23 09:41:39;;;;;;;;;;;;;;;30.33;36.23;100706.25;5023039;28;1728;-33
2021/07/23 09:44:25;;;;;;;;;;;;;;;30.35;37.39;100700.59;5007593;28;1240;-30
2021/07/23 09:47:11;;;;;;;;;;;;;;;30.32;36.81;100699.16;5039054;28;943;-27
2021/07/23 09:50:13;;;;;;;;;;;;;;;30.36;36.56;100694.16;5023618;28;1655;-30
2021/07/23 09:53:07;;;;;;;;;;;;;;;30.35;36.65;100689.75;5015713;28;940;-35
2021/07/23 09:55:53;;;;;;;;;;;;;;;30.40;36.49;100695.38;5000494;28;1917;-26
2021/07/23 09:58:21;;;;;;;;;;;;;;;30.36;36.91;100686.84;5050909;28;769;-30
2021/07/23 10:01:01;;;;;;;;;;;;;;;30.44;37.10;100688.53;5077730;28;716;-33
2021/07/23 10:03:28;;;;;;;;;;;;;;;30.42;36.78;100688.72;5077573;28;831;-35
2021/07/23 10:05:55;;;;;;;;;;;;;;;30.47;37.47;100688.09;5077793;28;831;-34
2021/07/23 10:08:21;;;;;;;;;;;;;;;30.50;37.68;100694.97;5076846;28;871;-31
2021/07/23 10:10:50;;;;;;;;;;;;;;;30.50;37.34;100686.84;5077416;28;768;-30
2021/07/23 10:13:16;;;;;;;;;;;;;;;30.50;37.03;100678.69;5077323;28;844;-23
2021/07/23 10:15:41;;;;;;;;;;;;;;;30.50;37.41;100686.84;5077197;28;1902;-26
2021/07/23 10:18:07;;;;;;;;;;;;;;;30.52;37.38;100679.34;5077391;28;847;-26
2021/07/23 10:20:32;;;;;;;;;;;;;;;30.54;37.13;100679.97;5059679;28;772;-27
2021/07/23 10:22:57;;;;;;;;;;;;;;;30.51;37.56;100685.81;5076983;28;760;-35
2021/07/23 10:25:23;;;;;;;;;;;;;;;30.59;37.20;100682.06;5058703;28;812;-35
2021/07/23 10:27:49;;;;;;;;;;;;;;;30.56;36.90;100672.47;5093580;28;1117;-30
2021/07/23 10:30:46;;;;;;;;;;;;;;;30.57;37.55;100676.84;5097584;28;815;-27
2021/07/23 10:33:12;;;;;;;;;;;;;;;30.58;37.52;100681.22;5059498;28;1461;-27
2021/07/23 10:35:37;;;;;;;;;;;;;;;30.58;37.67;100674.97;5078951;28;1902;-28
2021/07/23 10:38:03;;;;;;;;;;;;;;;30.53;36.98;100675.59;5097209;28;771;-25
2021/07/23 10:40:32;;;;;;;;;;;;;;;30.57;36.40;100674.13;5097022;28;910;-32
2021/07/23 10:42:57;;;;;;;;;;;;;;;30.61;36.70;100667.25;5078838;28;947;-28
2021/07/23 10:45:22;;;;;;;;;;;;;;;30.65;37.06;100667.63;5075624;28;811;-36
2021/07/23 10:47:48;;;;;;;;;;;;;;;30.62;36.92;100671.63;5076210;28;1136;-34
2021/07/23 10:50:14;;;;;;;;;;;;;;;30.62;36.69;100674.31;5117078;28;716;-33
2021/07/23 10:52:39;;;;;;;;;;;;;;;30.68;37.57;100657.19;5117539;28;759;-28
2021/07/23 10:55:21;;;;;;;;;;;;;;;30.64;37.24;100657.84;5117138;28;1909;-34
2021/07/23 10:58:04;;;;;;;;;;;;;;;30.61;37.35;100656.38;5101023;28;954;-29
2021/07/23 11:01:02;;;;;;;;;;;;;;;30.64;37.23;100657.84;5113866;28;1515;-36
2021/07/23 11:03:37;;;;;;;;;;;;;;;30.60;37.43;100651.13;5069681;28;1359;-31
2021/07/23 11:06:12;;;;;;;;;;;;;;;30.66;37.62;100659.28;5096801;28;867;-38
2021/07/23 11:08:43;;;;;;;;;;;;;;;30.66;37.98;100653.84;5097207;28;783;-29
2021/07/23 11:11:08;;;;;;;;;;;;;;;30.68;37.78;100653.63;5099079;28;974;-36
2021/07/23 11:13:34;;;;;;;;;;;;;;;30.71;37.54;100655.13;5117294;28;787;-33
2021/07/23 11:16:11;;;;;;;;;;;;;;;30.73;37.00;100642.97;5117026;28;1905;-35
2021/07/23 11:18:36;;;;;;;;;;;;;;;30.74;37.00;100647.38;5117529;28;795;-29
2021/07/23 11:21:02;;;;;;;;;;;;;;;30.75;37.57;100643.63;5098243;28;831;-36
2021/07/23 11:23:31;;;;;;;;;;;;;;;30.77;37.82;100649.69;5098976;28;783;-27
2021/07/23 11:25:56;;;;;;;;;;;;;;;30.78;37.47;100643.19;5115953;28;942;-29
2021/07/23 11:28:21;;;;;;;;;;;;;;;30.75;37.36;100645.47;5078590;28;826;-35
2021/07/23 11:30:47;;;;;;;;;;;;;;;30.79;37.40;100639.44;5102930;28;1488;-27
2021/07/23 11:33:12;;;;;;;;;;;;;;;30.79;37.39;100642.16;5116895;28;821;-37
2021/07/23 11:35:41;;;;;;;;;;;;;;;30.78;37.53;100643.19;5117089;28;1909;-26
2021/07/23 11:38:10;;;;;;;;;;;;;;;30.75;37.87;100640.91;5116878;28;759;-27
2021/07/23 11:40:35;;;;;;;;;;;;;;;30.80;37.46;100640.28;5116999;28;780;-32
2021/07/23 11:43:01;;;;;;;;;;;;;;;30.72;37.50;100638.59;5116540;28;946;-37
2021/07/23 11:45:33;;;;;;;;;;;;;;;30.79;37.75;100639.44;5116999;28;808;-34
2021/07/23 11:48:06;;;;;;;;;;;;;;;30.78;37.91;100632.31;5117160;28;1103;-36
2021/07/23 11:50:31;;;;;;;;;;;;;;;30.81;38.09;100630.28;5116857;28;788;-37
2021/07/23 11:53:00;;;;;;;;;;;;;;;30.80;37.91;100640.28;5098523;28;784;-26
2021/07/23 11:55:36;;;;;;;;;;;;;;;30.77;37.80;100637.97;5116453;28;1976;-29
2021/07/23 11:58:01;;;;;;;;;;;;;;;30.79;37.87;100633.16;5114831;28;970;-26
2021/07/23 12:00:29;;;;;;;;;;;;;;;30.86;38.16;100633.19;5116074;28;1546;-28
2021/07/23 12:02:54;;;;;;;;;;;;;;;30.82;37.38;100640.06;5116703;28;679;-33
2021/07/23 12:05:20;;;;;;;;;;;;;;;30.80;37.14;100640.28;5116421;28;810;-26
2021/07/23 12:08:00;;;;;;;;;;;;;;;30.85;36.68;100648.66;5116608;28;795;-31
2021/07/23 12:10:26;;;;;;;;;;;;;;;30.84;36.91;100638.00;5116653;28;756;-26
2021/07/23 12:12:52;;;;;;;;;;;;;;;30.86;36.39;100650.34;5116280;28;938;-33
2021/07/23 12:15:18;;;;;;;;;;;;;;;30.77;34.36;100641.53;5098655;28;1980;-26
2021/07/23 12:17:44;;;;;;;;;;;;;;;30.74;33.69;100635.69;5116749;28;771;-27
2021/07/23 12:20:09;;;;;;;;;;;;;;;30.61;33.77;100634.66;5116076;28;867;-37
2021/07/23 12:22:35;;;;;;;;;;;;;;;30.49;33.79;100629.03;5116568;28;840;-30
2021/07/23 12:25:19;;;;;;;;;;;;;;;30.49;33.85;100630.91;5116922;28;739;-30
2021/07/23 12:27:44;;;;;;;;;;;;;;;30.40;33.81;100628.38;5100518;28;990;-35
2021/07/23 12:30:11;;;;;;;;;;;;;;;30.33;33.90;100622.13;5109080;28;1527;-26
2021/07/23 12:32:36;;;;;;;;;;;;;;;30.30;34.26;100625.25;5098733;28;1424;-31
2021/07/23 12:35:01;;;;;;;;;;;;;;;30.37;34.33;100636.94;5119892;28;1909;-24
2021/07/23 12:37:27;;;;;;;;;;;;;;;30.39;34.99;100639.44;5120154;28;825;-26
2021/07/23 12:40:02;;;;;;;;;;;;;;;30.35;34.70;100639.03;5100992;28;1499;-27
2021/07/23 12:42:28;;;;;;;;;;;;;;;30.28;34.54;100635.50;5112833;28;938;-36
2021/07/23 12:44:53;;;;;;;;;;;;;;;30.35;34.68;100632.75;5119568;28;859;-25
2021/07/23 12:47:19;;;;;;;;;;;;;;;30.25;34.48;100634.00;5119721;28;771;-28
2021/07/23 12:49:45;;;;;;;;;;;;;;;30.22;34.44;100631.72;5119743;28;1318;-30
2021/07/23 12:52:10;;;;;;;;;;;;;;;30.23;34.49;100630.66;5119369;28;518;-36
2021/07/23 12:54:45;;;;;;;;;;;;;;;30.22;34.71;100628.16;5120037;28;1980;-30
2021/07/23 12:57:14;;;;;;;;;;;;;;;30.26;34.18;100626.72;5119563;28;974;-36